Nyngan, Australia
Current Conditions -  °F | °C
As of 8:00 PM on Sunday 21 Dec 2014 (Local Time) from YSDU Reporting Station
Scattered Clouds Scattered Clouds  
Wind Chill: 88°   Ceiling: Unl
Heat Index: 88°   Visibility: 6mi
Dew Point: 50°   Wind: 7mph
Humidity: 27%   Direction: 280°W
Pressure: 29.88"   Gusts: NA
Location:  31.56°S, 147.19°E
Report Text: YSDU 210900Z AUTO 28006KT 9999 // SCT091 31/10 Q1012
Loading
Personal Weather Stations






























Interactive Weather Map New forecast layout! Learn more

10-Day Weather Forecast

Advertisements
Track Severe Weather on mobile